Greeley, CO

1:07 AM MDT on August 20, 2014 (GMT -0600)
Dos Rios IP | Change Station
CLOSE
Current Station
Personal Weather Station
Location: Greeley, CO
Elevation: 4699 ft
Nearby Weather Stations

Elev 4699 ft 40.35 °N, 104.76 °W | Updated 22 seconds ago

Clear
Clear
63.3 °F
Feels Like 63.3 °F
N
0.0
Wind Variable Wind from East

Today
High -- | Low -- °F
--% Chance of Precip.
Yesterday
High -- | Low -- °F
Precip. -- in
6:14 AM 7:48 PM
Waning Crescent, 24% visible
Pressure 29.90 in
Visibility 10.0 miles
Clouds Clear
Dew Point 55 °F
Humidity 75%
Rainfall 0.00 in
Snow Depth Not available.
UV 0.0 out of 12
Pollen 9.60 out of 12
Ozone Good
PM2.5 Moderate
Flu Activity Not available.
METAR KGXY 200655Z AUTO 00000KT 10SM CLR 17/11 A2990 RMK AO1

More Conditions Fewer Conditions

Pressure 29.90 in
Visibility 10.0 miles
Clouds Clear
Dew Point 55 °F
Humidity 75%
Rainfall 0.00 in
Snow Depth Not available.
UV 0.0 out of 12
Pollen 9.60 out of 12
Ozone Good
PM2.5 Moderate
Flu Activity Not available.
METAR KGXY 200655Z AUTO 00000KT 10SM CLR 17/11 A2990 RMK AO1

More Conditions Fewer Conditions

10-Day Weather Forecast

Almanac

Astronomy

Aug. 20, 2014 Rise Set
Actual Time 6:14 AM MDT 7:48 PM MDT
Civil Twilight 5:45 AM MDT 8:17 PM MDT
Nautical Twilight 5:11 AM MDT 8:52 PM MDT
Astronomical Twilight 4:34 AM MDT 9:28 PM MDT
Moon 1:56 AM MDT 4:36 PM MDT
Length of Visible Light 14h 31m
Length of Day
13h 34m
Tomorrow will be 2m 25s shorter.
Waning Crescent, 24% of the Moon is Illuminated
Today
Waning Crescent
Aug 25
New
Sep 2
First Quarter
Sep 8
Full
Sep 15
Last Quarter

Today's Extremes

State Highs State Lows

Community

WunderPhotos

Upload Photos

1,745,592 photos uploaded!

Nearby

Air Quality

  Air Quality AQ Index Pollutant
Yesterday Good
OZONE
Yesterday Good
PM2.5
Current Moderate
PM2.5
Current Good
OZONE
Tuesday Good
PM2.5
Tuesday Good
OZONE
Wednesday Good
PM2.5
Wednesday Good
OZONE

Snow Depth

Station Depth Elevation
Copeland Lake 0 in 8600 ft
Wild Basin 0 in 9560 ft
Bear Lake 0 in 9500 ft
Niwot 1 in 9910 ft
University Camp 0 in 10300 ft

Earthquake Activity

City Distance Mag. Time & Date
No recent earthquake activity has been reported nearby.
Minimum magnitude displayed is 2.5.

Coastal Water Temperatures

Place Temperature
No Stations Reporting

Nearby Weather Stations